Terminal Aerodrome Forecast
Issued by NWS

Home | Current Version | Previous Version | Text Only | Print | Product List | Glossary On
Versions: 1 2 3 4 5 6 7 8 9 10 11 12 13 14 15 16 17
000
FTUS46 KSTO 241300 CCA
TAFSAC
TAF COR
KSAC 241304Z 2413/2512 00000KT 3SM BR FEW005
      TEMPO 2413/2417 1/4SM FG
     FM241800 18006KT P6SM SKC
     FM250000 22009KT P6SM SCT250
     FM251000 17011KT P6SM OVC100=

USA.gov is the U.S. government's official web portal to all federal, state and local government web resources and services.